Augusta, Illinois
Current Conditions -  °F | °C
As of 9:54 AM on Friday 21 Nov 2014 (Local Time) from KUIN Reporting Station
Clear Clear  
Wind Chill: 17°   Ceiling: Unl
Heat Index: 28°   Visibility: 10mi
Dew Point: 12°   Wind: 13mph
Humidity: 51%   Direction: 130°SE
Pressure: 30.39"   Gusts: NA
Location:  40.23°N, 90.95°W
Report Text: KUIN 211554Z AUTO 13011KT 10SM CLR M02/M11 A3039 RMK AO2 SLP300 T10221111
Loading
Personal Weather Stations






























Interactive Weather Map New forecast layout! Learn more

10-Day Weather Forecast

Advertisements
Track Severe Weather on mobile